Time;durP1;ratioP1;P1;durP2;ratioP2;P2;SDS_P1;SDS_P2;PMS_P1;PMS_P2;Temp;Humidity;BMP_temperature;BMP_pressure;BME280_temperature;BME280_humidity;BME280_pressure;Samples;Min_cycle;Max_cycle;Signal;HPM_P1;HPM_P2
2022/06/08 00:02:14;;;;;;;10.57;9.48;;;15.90;99.90;;;;;;5035123;28;20045;-67
2022/06/08 00:04:40;;;;;;;9.35;8.38;;;15.90;99.90;;;;;;5033850;28;20023;-68
2022/06/08 00:07:06;;;;;;;11.80;9.90;;;15.90;99.90;;;;;;5033856;28;20551;-68
2022/06/08 00:09:32;;;;;;;15.73;11.95;;;15.90;99.90;;;;;;5034040;28;20033;-68
2022/06/08 00:11:57;;;;;;;14.45;11.55;;;15.80;99.90;;;;;;5034997;28;20036;-68
2022/06/08 00:14:23;;;;;;;12.20;10.60;;;15.80;99.90;;;;;;5035098;28;20029;-68
2022/06/08 00:16:49;;;;;;;10.35;9.05;;;15.80;99.90;;;;;;5034689;28;20063;-68
2022/06/08 00:19:15;;;;;;;10.38;9.27;;;15.70;99.90;;;;;;5017062;28;20021;-68
2022/06/08 00:21:41;;;;;;;9.75;8.70;;;15.60;99.90;;;;;;5035044;28;20021;-68
2022/06/08 00:24:06;;;;;;;9.93;8.93;;;15.60;99.90;;;;;;5034935;28;20078;-68
2022/06/08 00:26:32;;;;;;;9.30;8.35;;;15.50;99.90;;;;;;5033442;28;20472;-68
2022/06/08 00:28:58;;;;;;;9.48;8.48;;;15.40;99.90;;;;;;5034613;28;20048;-68
2022/06/08 00:31:24;;;;;;;9.48;8.48;;;15.40;99.90;;;;;;5034776;28;20115;-68
2022/06/08 00:33:49;;;;;;;10.18;9.00;;;15.30;99.90;;;;;;5033340;28;20022;-68
2022/06/08 00:36:15;;;;;;;10.60;9.38;;;15.30;99.90;;;;;;5033294;28;20049;-68
2022/06/08 00:38:41;;;;;;;10.63;9.52;;;15.20;99.90;;;;;;5034554;28;20029;-68
2022/06/08 00:41:19;;;;;;;14.07;10.02;;;15.20;99.90;;;;;;5032394;28;20433;-68
2022/06/08 00:43:45;;;;;;;12.02;9.93;;;15.10;99.90;;;;;;5034307;28;20075;-68
2022/06/08 00:46:12;;;;;;;10.75;9.50;;;15.00;99.90;;;;;;5034483;28;20017;-68
2022/06/08 00:48:44;;;;;;;10.00;8.40;;;15.00;99.90;;;;;;5034285;28;20056;-68
2022/06/08 00:51:10;;;;;;;10.40;9.27;;;14.90;99.90;;;;;;5034218;28;20079;-68
2022/06/08 00:53:48;;;;;;;14.13;12.07;;;14.70;99.90;;;;;;5032925;28;20025;-68
2022/06/08 00:56:18;;;;;;;21.48;15.85;;;14.70;99.90;;;;;;5032661;28;20068;-68
2022/06/08 00:58:45;;;;;;;19.48;15.18;;;14.70;99.90;;;;;;5034219;28;20480;-68
2022/06/08 01:01:11;;;;;;;20.83;15.15;;;14.70;99.90;;;;;;5032722;28;20075;-68
2022/06/08 01:03:37;;;;;;;17.25;13.82;;;14.60;99.90;;;;;;5034005;28;20097;-68
2022/06/08 01:06:12;;;;;;;20.65;15.35;;;14.60;99.90;;;;;;5034169;28;20033;-68
2022/06/08 01:08:42;;;;;;;21.13;15.18;;;14.50;99.90;;;;;;5033958;28;20361;-67
2022/06/08 01:11:11;;;;;;;20.48;14.55;;;14.60;99.90;;;;;;5034075;28;20029;-67
2022/06/08 01:13:38;;;;;;;22.70;17.10;;;14.60;99.90;;;;;;5033837;28;20032;-68
2022/06/08 01:16:08;;;;;;;22.42;16.25;;;14.60;99.90;;;;;;5033621;28;20022;-68
2022/06/08 01:18:34;;;;;;;22.02;17.38;;;14.70;99.90;;;;;;5032471;28;20036;-68
2022/06/08 01:24:00;;;;;;;21.60;16.73;;;14.70;99.90;;;;;;5111231;27;20178;-68
2022/06/08 01:26:40;;;;;;;30.33;21.83;;;14.60;99.90;;;;;;5111374;28;20519;-68
2022/06/08 01:29:22;;;;;;;35.00;25.52;;;14.70;99.90;;;;;;5109746;28;20024;-68
2022/06/08 01:32:37;;;;;;;43.13;28.17;;;14.80;99.90;;;;;;5111015;28;20081;-68
2022/06/08 01:35:14;;;;;;;45.53;30.38;;;14.80;99.90;;;;;;5109502;28;20070;-68
2022/06/08 01:38:04;;;;;;;50.28;32.63;;;14.90;99.90;;;;;;5109938;28;20066;-68
2022/06/08 01:43:48;;;;;;;47.30;31.48;;;14.90;99.90;;;;;;5113961;27;1182340;-68
2022/06/08 01:46:25;;;;;;;47.90;30.63;;;14.90;99.90;;;;;;5131457;28;20062;-67
2022/06/08 01:49:16;;;;;;;47.92;30.60;;;15.00;99.90;;;;;;5131819;27;20386;-68
2022/06/08 01:51:51;;;;;;;49.75;32.60;;;14.90;99.90;;;;;;5131372;28;20069;-68
2022/06/08 01:54:31;;;;;;;47.95;32.55;;;14.90;99.90;;;;;;5131672;27;20023;-68
2022/06/08 01:57:12;;;;;;;53.30;34.22;;;14.90;99.90;;;;;;5131364;27;20024;-68
2022/06/08 01:59:53;;;;;;;53.47;33.30;;;14.90;99.90;;;;;;5131568;27;20032;-68
2022/06/08 02:02:46;;;;;;;53.08;32.85;;;14.80;99.90;;;;;;5129904;28;20077;-68
2022/06/08 02:05:25;;;;;;;50.63;30.88;;;14.80;99.90;;;;;;5131245;27;20562;-69
2022/06/08 02:08:01;;;;;;;54.05;34.55;;;14.70;99.90;;;;;;5129975;28;20024;-68
2022/06/08 02:10:57;;;;;;;57.22;34.83;;;14.70;99.90;;;;;;5131230;27;20023;-68
2022/06/08 02:13:30;;;;;;;60.22;36.25;;;14.70;99.90;;;;;;5130979;27;20374;-68
2022/06/08 02:16:00;;;;;;;;;;;14.70;99.90;;;;;;5131701;27;20050;-68
2022/06/08 02:18:33;;;;;;;59.45;36.15;;;14.60;99.90;;;;;;5130934;27;19949;-68
2022/06/08 02:21:14;;;;;;;61.35;36.95;;;14.70;99.90;;;;;;5129989;28;20031;-68
2022/06/08 02:23:52;;;;;;;71.55;40.22;;;14.70;99.90;;;;;;5130904;27;20042;-68
2022/06/08 02:26:23;;;;;;;74.15;40.75;;;14.70;99.90;;;;;;5131081;27;20072;-68
2022/06/08 02:28:59;;;;;;;69.38;41.08;;;14.80;99.90;;;;;;5129861;28;20027;-68
2022/06/08 02:31:35;;;;;;;71.10;41.15;;;14.80;99.90;;;;;;5112345;28;20612;-68
2022/06/08 02:34:39;;;;;;;70.93;41.45;;;14.80;99.90;;;;;;5112404;28;20500;-68
2022/06/08 02:37:02;;;;;;;68.45;40.80;;;14.80;99.90;;;;;;5130487;28;20397;-68
2022/06/08 02:39:36;;;;;;;64.72;39.20;;;14.80;99.90;;;;;;5130593;27;20031;-68
2022/06/08 02:42:09;;;;;;;69.80;40.45;;;14.80;99.90;;;;;;5129218;28;20044;-68
2022/06/08 02:44:38;;;;;;;60.08;37.05;;;14.80;99.90;;;;;;5130725;27;20026;-68
2022/06/08 02:47:16;;;;;;;64.85;40.42;;;14.80;99.90;;;;;;5130380;27;20034;-68
2022/06/08 02:49:42;;;;;;;63.75;40.22;;;14.80;99.90;;;;;;5130368;27;20015;-68
2022/06/08 02:52:17;;;;;;;65.50;39.85;;;14.80;99.90;;;;;;5130302;28;20038;-68
2022/06/08 02:54:43;;;;;;;65.82;38.35;;;14.70;99.90;;;;;;5116025;28;20468;-68
2022/06/08 02:57:26;;;;;;;65.53;40.72;;;14.70;99.90;;;;;;5116558;28;20035;-68
2022/06/08 02:59:57;;;;;;;;;;;14.70;99.90;;;;;;5116109;28;20036;-68
2022/06/08 03:02:30;;;;;;;66.30;40.50;;;14.70;99.90;;;;;;5116379;27;19911;-68
2022/06/08 03:05:29;;;;;;;76.00;42.42;;;14.70;99.90;;;;;;5116428;28;20072;-68
2022/06/08 03:08:01;;;;;;;75.93;42.80;;;14.70;99.90;;;;;;5116196;28;20031;-68
2022/06/08 03:10:32;;;;;;;70.88;41.33;;;14.70;99.90;;;;;;5116254;28;20099;-68
2022/06/08 03:13:07;;;;;;;68.30;40.65;;;14.70;99.90;;;;;;5116374;28;20020;-68
2022/06/08 03:15:34;;;;;;;73.15;41.60;;;14.70;99.90;;;;;;5116253;28;20023;-68
2022/06/08 03:17:59;;;;;;;68.97;41.40;;;14.60;99.90;;;;;;5116131;28;20035;-69
2022/06/08 03:20:26;;;;;;;67.80;40.75;;;14.60;99.90;;;;;;5116315;28;20024;-69
2022/06/08 03:22:54;;;;;;;69.93;43.45;;;14.60;99.90;;;;;;5116068;28;20677;-68
2022/06/08 03:25:21;;;;;;;73.90;43.85;;;14.50;99.90;;;;;;5115968;28;20100;-69
2022/06/08 03:27:48;;;;;;;57.38;36.10;;;14.50;99.90;;;;;;5115933;28;20019;-68
2022/06/08 03:30:15;;;;;;;60.60;38.15;;;14.40;99.90;;;;;;5116107;27;20114;-69
2022/06/08 03:32:42;;;;;;;57.78;35.72;;;14.30;99.90;;;;;;5115843;28;20496;-68
2022/06/08 03:35:08;;;;;;;66.80;40.50;;;14.40;99.90;;;;;;5116134;28;20067;-68
2022/06/08 03:37:34;;;;;;;57.70;36.70;;;14.20;99.90;;;;;;5115754;28;20020;-68
2022/06/08 03:39:59;;;;;;;51.88;34.60;;;14.20;99.90;;;;;;5115698;28;20030;-69
2022/06/08 03:42:26;;;;;;;55.03;34.65;;;14.20;99.90;;;;;;5115416;28;20078;-68
2022/06/08 03:44:52;;;;;;;54.22;33.33;;;14.20;99.90;;;;;;5115648;28;20389;-68
2022/06/08 03:47:23;;;;;;;52.72;31.90;;;14.10;99.90;;;;;;5114409;28;20034;-69
2022/06/08 03:49:51;;;;;;;60.92;38.03;;;14.10;99.90;;;;;;5115550;28;20034;-68
2022/06/08 03:52:20;;;;;;;59.95;37.85;;;14.10;99.90;;;;;;5097759;28;20469;-68
2022/06/08 03:54:52;;;;;;;74.90;45.28;;;14.10;99.90;;;;;;5114547;28;20038;-68
2022/06/08 03:57:19;;;;;;;81.40;44.10;;;14.20;99.90;;;;;;5097119;28;20222;-68
2022/06/08 03:59:47;;;;;;;74.57;44.53;;;14.30;99.90;;;;;;5114361;28;20038;-69
2022/06/08 04:02:13;;;;;;;77.50;45.45;;;14.30;99.90;;;;;;5115415;28;20032;-69
2022/06/08 04:04:40;;;;;;;94.80;51.22;;;14.30;99.90;;;;;;5114208;28;20093;-70
2022/06/08 04:07:07;;;;;;;95.78;51.35;;;14.50;99.90;;;;;;5097080;28;20488;-69
2022/06/08 04:09:33;;;;;;;83.05;48.70;;;14.50;99.90;;;;;;5113942;28;20058;-68
2022/06/08 04:11:59;;;;;;;73.63;43.10;;;14.50;99.90;;;;;;5115334;28;20023;-68
2022/06/08 04:14:25;;;;;;;62.25;38.30;;;14.70;99.90;;;;;;5114147;28;20027;-68
2022/06/08 04:16:51;;;;;;;58.78;36.38;;;14.80;99.90;;;;;;5114985;28;20088;-68
2022/06/08 04:19:17;;;;;;;53.45;36.75;;;14.80;99.90;;;;;;5113579;28;20023;-68
2022/06/08 04:21:43;;;;;;;63.83;39.67;;;15.00;99.90;;;;;;5114862;28;20036;-69
2022/06/08 04:24:12;;;;;;;47.42;31.42;;;15.10;99.90;;;;;;5096543;28;20496;-68
2022/06/08 04:26:40;;;;;;;50.38;35.17;;;15.30;99.90;;;;;;5113916;28;20024;-68
2022/06/08 04:29:06;;;;;;;46.42;33.45;;;15.40;99.90;;;;;;5115015;28;20519;-68
2022/06/08 04:31:34;;;;;;;42.40;31.77;;;15.50;99.90;;;;;;5114999;28;20055;-68
2022/06/08 04:34:01;;;;;;;40.72;30.65;;;15.60;99.90;;;;;;5113546;28;20035;-68
2022/06/08 04:36:27;;;;;;;33.85;26.40;;;15.70;99.90;;;;;;5114851;28;20027;-68
2022/06/08 04:38:53;;;;;;;32.35;25.13;;;16.30;99.90;;;;;;5113426;28;20108;-68
2022/06/08 04:41:19;;;;;;;25.83;21.83;;;17.50;99.90;;;;;;5114242;28;20047;-69
2022/06/08 04:43:45;;;;;;;28.58;22.38;;;18.50;99.90;;;;;;5114552;28;20055;-69
2022/06/08 04:46:15;;;;;;;22.17;19.88;;;19.30;99.90;;;;;;5113158;28;20027;-69
2022/06/08 04:48:44;;;;;;;21.15;18.98;;;20.10;99.90;;;;;;5113307;28;20107;-70
2022/06/08 04:51:11;;;;;;;21.38;19.13;;;20.70;99.90;;;;;;5114388;28;20016;-68
2022/06/08 04:53:38;;;;;;;21.02;18.92;;;20.90;99.90;;;;;;5113082;28;20501;-68
2022/06/08 04:56:05;;;;;;;23.13;20.83;;;20.80;99.90;;;;;;5113582;28;20065;-68
2022/06/08 04:58:30;;;;;;;19.08;16.95;;;20.60;99.90;;;;;;5114494;28;20371;-68
2022/06/08 05:00:56;;;;;;;20.35;18.42;;;21.30;99.90;;;;;;5114343;28;20031;-68
2022/06/08 05:03:22;;;;;;;20.85;18.55;;;21.40;99.90;;;;;;5114395;28;20027;-69
2022/06/08 05:05:48;;;;;;;19.95;17.95;;;21.70;99.90;;;;;;5114350;28;20028;-68
2022/06/08 05:08:17;;;;;;;21.10;17.40;;;21.50;99.90;;;;;;5113137;28;20389;-68
2022/06/08 05:10:43;;;;;;;20.25;18.15;;;20.90;99.90;;;;;;5113125;28;20049;-69
2022/06/08 05:13:10;;;;;;;19.85;17.90;;;20.80;99.90;;;;;;5113990;28;20077;-69
2022/06/08 05:15:40;;;;;;;19.30;17.35;;;20.60;99.90;;;;;;5113675;28;20019;-69
2022/06/08 05:18:06;;;;;;;20.00;17.88;;;20.60;99.90;;;;;;5114157;28;20038;-68
2022/06/08 05:20:33;;;;;;;26.13;19.40;;;20.10;99.90;;;;;;5113983;28;20020;-69
2022/06/08 05:23:00;;;;;;;23.60;19.15;;;19.30;99.90;;;;;;5113691;28;20107;-69
2022/06/08 05:25:29;;;;;;;19.77;17.67;;;18.90;99.90;;;;;;5112614;28;20016;-69
2022/06/08 05:27:55;;;;;;;25.88;19.40;;;18.90;99.90;;;;;;5114032;28;20024;-69
2022/06/08 05:30:32;;;;;;;20.80;18.63;;;19.20;99.90;;;;;;5113702;28;20158;-69
2022/06/08 05:32:59;;;;;;;20.48;17.35;;;19.60;99.90;;;;;;5113710;28;20046;-68
2022/06/08 05:35:26;;;;;;;19.10;17.10;;;19.80;99.90;;;;;;5112453;28;20020;-69
2022/06/08 05:37:53;;;;;;;17.20;15.43;;;20.40;99.90;;;;;;5112320;28;20058;-69
2022/06/08 05:40:20;;;;;;;18.65;15.75;;;20.90;99.90;;;;;;5113699;28;20493;-69
2022/06/08 05:42:46;;;;;;;17.83;15.52;;;21.10;99.90;;;;;;5113647;28;20513;-69
2022/06/08 05:45:17;;;;;;;15.50;13.98;;;21.40;99.90;;;;;;5112886;28;20035;-69
2022/06/08 05:47:43;;;;;;;17.20;15.40;;;21.20;99.90;;;;;;5112917;28;20028;-69
2022/06/08 05:50:11;;;;;;;16.83;14.55;;;20.90;99.90;;;;;;5113236;28;20031;-69
2022/06/08 05:52:37;;;;;;;14.65;13.15;;;20.80;99.90;;;;;;5110879;28;20478;-69
2022/06/08 05:55:04;;;;;;;16.92;13.18;;;20.50;99.90;;;;;;5113313;28;20035;-69
2022/06/08 05:57:29;;;;;;;15.98;12.43;;;20.20;99.90;;;;;;5113057;28;20080;-69
2022/06/08 05:59:55;;;;;;;12.70;11.25;;;20.50;99.90;;;;;;5108981;28;20432;-69
2022/06/08 06:02:21;;;;;;;15.20;11.88;;;20.40;99.90;;;;;;5111677;28;20034;-68
2022/06/08 06:04:46;;;;;;;16.73;10.98;;;20.50;99.90;;;;;;5113260;28;20020;-69
2022/06/08 06:07:12;;;;;;;13.68;10.63;;;21.00;99.90;;;;;;5113589;28;20069;-69
2022/06/08 06:09:39;;;;;;;11.80;9.75;;;21.50;99.90;;;;;;5112359;28;20015;-69
2022/06/08 06:12:05;;;;;;;10.45;9.38;;;22.10;99.90;;;;;;5113235;28;20024;-69
2022/06/08 06:14:32;;;;;;;9.57;8.38;;;23.50;99.90;;;;;;5095233;28;20477;-69
2022/06/08 06:16:58;;;;;;;9.73;8.73;;;23.00;99.90;;;;;;5113529;28;20024;-69
2022/06/08 06:19:24;;;;;;;11.25;8.63;;;22.90;99.90;;;;;;5113181;28;20031;-69
2022/06/08 06:21:50;;;;;;;10.38;7.60;;;22.90;99.90;;;;;;5113325;28;20393;-69
2022/06/08 06:24:17;;;;;;;8.43;6.70;;;23.20;99.90;;;;;;5113408;28;20020;-69
2022/06/08 06:26:42;;;;;;;7.75;6.05;;;23.90;99.90;;;;;;5113349;28;20462;-69
2022/06/08 06:29:10;;;;;;;6.32;5.65;;;23.80;99.90;;;;;;5116692;28;20073;-69
2022/06/08 06:31:44;;;;;;;6.72;4.97;;;24.30;99.90;;;;;;5121749;27;20031;-69
2022/06/08 06:34:13;;;;;;;5.80;5.20;;;25.30;99.90;;;;;;5135688;27;20019;-69
2022/06/08 06:36:38;;;;;;;5.55;5.05;;;24.50;99.90;;;;;;5133447;27;20439;-68
2022/06/08 06:39:04;;;;;;;5.40;4.75;;;24.20;99.90;;;;;;5116951;28;20024;-68
2022/06/08 06:41:31;;;;;;;7.75;5.95;;;24.20;99.90;;;;;;5116757;27;20100;-69
2022/06/08 06:43:56;;;;;;;7.38;5.68;;;24.60;99.90;;;;;;5119164;27;20023;-68
2022/06/08 06:46:22;;;;;;;4.95;4.40;;;24.90;99.90;;;;;;5119228;27;20045;-68
2022/06/08 06:48:48;;;;;;;6.18;4.43;;;25.40;99.90;;;;;;5135729;27;20098;-68
2022/06/08 06:51:14;;;;;;;5.40;4.25;;;24.60;99.90;;;;;;5135981;27;20026;-69
2022/06/08 06:53:40;;;;;;;4.55;4.15;;;24.10;99.90;;;;;;5102395;28;20023;-69
2022/06/08 06:56:08;;;;;;;6.38;4.05;;;23.20;99.90;;;;;;5126407;27;20027;-68
2022/06/08 06:58:35;;;;;;;5.68;3.67;;;22.90;99.90;;;;;;5128778;27;20472;-69
2022/06/08 07:01:00;;;;;;;4.07;3.78;;;22.90;99.90;;;;;;5128015;27;20027;-69
2022/06/08 07:03:27;;;;;;;8.00;4.13;;;23.70;99.90;;;;;;5135179;27;20023;-69
2022/06/08 07:05:52;;;;;;;4.88;3.83;;;23.00;99.90;;;;;;5135016;27;20024;-69
2022/06/08 07:08:18;;;;;;;4.25;3.85;;;23.50;99.90;;;;;;5121568;27;20027;-68
2022/06/08 07:11:32;;;;;;;5.55;3.80;;;23.20;99.90;;;;;;5122559;27;20050;-68
2022/06/08 07:13:29;;;;;;;5.00;3.35;;;23.50;99.90;;;;;;5135362;27;20035;-68
2022/06/08 07:15:54;;;;;;;3.67;3.08;;;24.10;99.90;;;;;;5131832;27;20020;-69
2022/06/08 07:18:20;;;;;;;5.00;2.97;;;24.50;99.90;;;;;;5118639;27;20094;-68
2022/06/08 07:20:46;;;;;;;4.40;3.22;;;24.30;99.90;;;;;;5129788;27;20042;-68
2022/06/08 07:23:11;;;;;;;7.32;3.13;;;24.30;99.90;;;;;;5118149;27;20050;-68
2022/06/08 07:25:37;;;;;;;4.50;2.50;;;24.60;99.90;;;;;;5123611;27;20055;-70
2022/06/08 07:28:03;;;;;;;4.00;2.60;;;24.80;99.90;;;;;;5135230;27;20031;-69
2022/06/08 07:30:28;;;;;;;4.60;2.58;;;23.80;99.90;;;;;;5104133;28;20031;-69
2022/06/08 07:32:54;;;;;;;4.18;2.83;;;23.90;99.90;;;;;;5115761;27;20496;-68
2022/06/08 07:35:20;;;;;;;4.97;2.72;;;23.90;99.90;;;;;;5119953;27;20381;-68
2022/06/08 07:37:45;;;;;;;6.22;2.70;;;24.60;99.90;;;;;;5123451;27;20038;-68
2022/06/08 07:40:11;;;;;;;2.67;2.47;;;25.70;99.90;;;;;;5133078;27;20019;-68
2022/06/08 07:42:38;;;;;;;6.47;2.63;;;26.50;99.90;;;;;;5132321;27;20142;-68
2022/06/08 07:45:06;;;;;;;3.17;2.20;;;28.00;99.20;;;;;;5130220;27;20047;-68
2022/06/08 07:47:32;;;;;;;3.53;2.00;;;27.70;96.80;;;;;;5128477;27;20381;-69
2022/06/08 07:49:57;;;;;;;6.38;2.55;;;26.10;99.40;;;;;;5116754;27;20024;-68
2022/06/08 07:52:23;;;;;;;4.03;2.40;;;25.70;99.90;;;;;;5126311;27;20034;-69
2022/06/08 07:54:49;;;;;;;5.30;2.40;;;26.00;99.90;;;;;;5134251;27;20055;-68
2022/06/08 07:57:20;;;;;;;5.03;2.10;;;26.70;99.90;;;;;;5126861;27;20035;-67
2022/06/08 07:59:47;;;;;;;4.25;2.20;;;26.30;99.10;;;;;;5133554;27;20036;-67
2022/06/08 08:02:14;;;;;;;2.40;2.20;;;26.80;98.40;;;;;;5126456;27;20080;-67
2022/06/08 08:04:40;;;;;;;3.30;2.05;;;26.50;98.10;;;;;;5118583;27;20015;-67
2022/06/08 08:07:05;;;;;;;2.40;1.77;;;26.80;96.70;;;;;;5125485;27;20432;-68
2022/06/08 08:09:33;;;;;;;1.92;1.70;;;26.30;98.70;;;;;;5127704;27;20015;-69
2022/06/08 08:12:00;;;;;;;1.63;1.50;;;26.60;97.00;;;;;;5125360;27;20027;-68
2022/06/08 08:14:26;;;;;;;4.95;1.77;;;27.90;95.80;;;;;;5135583;27;20022;-68
2022/06/08 08:16:52;;;;;;;6.78;2.08;;;28.90;91.30;;;;;;5133865;27;20110;-69
2022/06/08 08:19:23;;;;;;;2.72;1.80;;;27.30;92.00;;;;;;5120665;27;20394;-69
2022/06/08 08:21:50;;;;;;;3.28;2.28;;;27.60;93.60;;;;;;5118236;27;20024;-68
2022/06/08 08:24:16;;;;;;;2.88;1.75;;;27.90;92.00;;;;;;5111218;27;20027;-68
2022/06/08 08:26:45;;;;;;;1.80;1.70;;;29.10;90.00;;;;;;5127838;27;20019;-69
2022/06/08 08:29:11;;;;;;;2.85;1.77;;;29.20;86.00;;;;;;5118314;27;20031;-69
2022/06/08 08:31:37;;;;;;;3.83;1.20;;;29.60;83.30;;;;;;5126664;27;20392;-68
2022/06/08 08:34:04;;;;;;;2.97;1.42;;;29.70;81.20;;;;;;5120072;27;20119;-68
2022/06/08 08:36:30;;;;;;;1.05;0.93;;;29.40;79.30;;;;;;5118524;27;20023;-69
2022/06/08 08:38:55;;;;;;;1.23;1.10;;;28.90;80.70;;;;;;5114729;28;20031;-69
2022/06/08 08:44:28;;;;;;;1.75;1.17;;;29.10;81.30;;;;;;5126141;27;20127;-68
2022/06/08 08:47:03;;;;;;;6.20;1.33;;;29.20;81.00;;;;;;5132293;27;20545;-69
2022/06/08 08:49:32;;;;;;;5.20;1.55;;;29.20;79.00;;;;;;5123054;27;20057;-68
2022/06/08 08:52:02;;;;;;;1.63;1.15;;;28.40;80.50;;;;;;5114011;28;20485;-69
2022/06/08 08:54:36;;;;;;;2.97;1.10;;;27.90;82.70;;;;;;5107038;27;20029;-66
2022/06/08 08:59:45;;;;;;;3.10;1.00;;;27.00;82.80;;;;;;5111016;27;20433;-69
2022/06/08 09:05:02;;;;;;;2.45;1.00;;;25.70;89.80;;;;;;5109892;28;20434;-68
2022/06/08 09:07:29;;;;;;;1.88;1.10;;;25.60;90.50;;;;;;5109775;28;20472;-70
2022/06/08 09:09:55;;;;;;;1.33;1.10;;;25.10;91.20;;;;;;5109538;28;20020;-69
2022/06/08 09:12:21;;;;;;;3.42;1.20;;;24.90;91.50;;;;;;5110472;28;20526;-68
2022/06/08 09:14:58;;;;;;;1.83;0.95;;;24.90;92.50;;;;;;5092503;28;20128;-68
2022/06/08 09:17:49;;;;;;;1.77;1.10;;;25.60;92.50;;;;;;5108528;28;20486;-67
2022/06/08 09:22:55;;;;;;;3.35;0.90;;;25.30;92.00;;;;;;5172795;27;20380;-69
2022/06/08 09:25:36;;;;;;;1.75;0.80;;;25.80;86.50;;;;;;5154357;27;20533;-68
2022/06/08 09:28:21;;;;;;;1.90;0.68;;;25.70;88.60;;;;;;5172515;27;20018;-67
2022/06/08 09:30:49;;;;;;;1.33;0.80;;;25.00;88.30;;;;;;5173031;27;20419;-67
2022/06/08 09:33:23;;;;;;;0.70;0.70;;;25.20;88.90;;;;;;5154671;27;20439;-67
2022/06/08 09:35:55;;;;;;;2.03;0.65;;;25.80;88.20;;;;;;5172991;27;20105;-67
2022/06/08 09:38:23;;;;;;;2.50;1.10;;;26.40;85.00;;;;;;5172809;27;20022;-67
2022/06/08 09:41:22;;;;;;;1.83;0.90;;;25.60;86.60;;;;;;5154550;27;20392;-68
2022/06/08 09:44:26;;;;;;;1.27;0.95;;;25.50;86.70;;;;;;5141921;27;20015;-67
2022/06/08 09:53:16;;;;;;;1.00;0.95;;;26.80;86.10;;;;;;5171392;27;20524;-67
2022/06/08 09:56:13;;;;;;;2.72;1.23;;;26.90;85.60;;;;;;5172259;27;20027;-68
2022/06/08 09:59:05;;;;;;;1.80;1.10;;;26.70;85.60;;;;;;5172341;27;20021;-69
2022/06/08 10:01:39;;;;;;;0.80;0.77;;;25.60;88.20;;;;;;5172176;27;20026;-68
2022/06/08 10:07:48;;;;;;;3.45;1.40;;;25.00;90.60;;;;;;5090754;28;20744;-66
2022/06/08 10:10:24;;;;;;;1.83;1.13;;;25.30;91.20;;;;;;5090449;28;20551;-68
2022/06/08 10:12:58;;;;;;;3.08;1.20;;;25.20;91.20;;;;;;5090926;28;20020;-68
2022/06/08 10:21:01;;;;;;;1.13;1.02;;;24.60;92.30;;;;;;5110594;27;20380;-67
2022/06/08 10:23:36;;;;;;;2.20;1.30;;;26.10;91.20;;;;;;5111104;28;20019;-67
2022/06/08 10:26:14;;;;;;;2.30;1.00;;;27.20;88.00;;;;;;5111220;28;20031;-67
2022/06/08 10:28:46;;;;;;;3.60;1.40;;;26.40;87.60;;;;;;5111156;28;20027;-67
2022/06/08 10:31:19;;;;;;;4.65;1.20;;;26.60;89.10;;;;;;5110992;28;20381;-67
2022/06/08 10:36:38;;;;;;;3.58;0.90;;;27.00;87.60;;;;;;5070617;28;20954;-66
2022/06/08 10:39:06;;;;;;;1.48;0.85;;;26.30;88.20;;;;;;5069567;28;20340;-67
2022/06/08 10:47:18;;;;;;;2.63;1.00;;;25.90;89.10;;;;;;5111116;27;20380;-67
2022/06/08 10:49:50;;;;;;;1.33;0.90;;;25.70;87.80;;;;;;5111335;28;20052;-67
2022/06/08 10:52:24;;;;;;;2.13;0.98;;;26.30;85.00;;;;;;5110482;28;20065;-67
2022/06/08 10:54:53;;;;;;;2.30;0.93;;;26.00;83.90;;;;;;5110950;28;20044;-67
2022/06/08 10:57:40;;;;;;;1.90;0.90;;;25.40;86.00;;;;;;5110907;28;20102;-67
2022/06/08 11:00:28;;;;;;;2.58;1.17;;;25.50;88.30;;;;;;5111021;28;20043;-68
2022/06/08 11:05:41;;;;;;;2.40;1.00;;;25.10;87.00;;;;;;5111142;27;20347;-67
2022/06/08 11:08:13;;;;;;;4.57;1.08;;;23.90;91.30;;;;;;5111114;28;20027;-68
2022/06/08 11:11:00;;;;;;;4.53;1.20;;;23.70;92.50;;;;;;5111189;28;20069;-68
2022/06/08 11:13:33;;;;;;;2.78;1.00;;;23.50;93.10;;;;;;5111202;28;20363;-68
2022/06/08 11:16:07;;;;;;;4.85;1.10;;;23.20;92.60;;;;;;5109612;28;20111;-68
2022/06/08 11:18:54;;;;;;;1.27;0.95;;;23.00;95.00;;;;;;5110996;28;20036;-67
2022/06/08 11:21:29;;;;;;;2.95;0.90;;;22.90;96.70;;;;;;5110943;28;20028;-68
2022/06/08 11:24:01;;;;;;;2.28;0.93;;;22.80;96.90;;;;;;5110929;28;20035;-68
2022/06/08 11:26:48;;;;;;;2.78;1.35;;;23.00;97.20;;;;;;5110679;28;20020;-68
2022/06/08 11:31:56;;;;;;;2.58;1.25;;;22.90;96.40;;;;;;5110958;27;20388;-68
2022/06/08 11:34:31;;;;;;;1.95;1.02;;;23.00;96.30;;;;;;5111069;28;20028;-68
2022/06/08 11:37:29;;;;;;;3.00;1.08;;;23.10;97.10;;;;;;5111256;28;20032;-68
2022/06/08 11:40:21;;;;;;;2.55;1.23;;;23.20;96.00;;;;;;5110783;28;20117;-68
2022/06/08 11:42:52;;;;;;;3.65;1.27;;;23.40;95.20;;;;;;5110839;28;20098;-68
2022/06/08 11:45:23;;;;;;;2.15;0.90;;;23.80;94.30;;;;;;5111133;28;20496;-68
2022/06/08 11:50:40;;;;;;;2.63;1.30;;;23.70;94.70;;;;;;5111030;27;20136;-67
2022/06/08 11:53:19;;;;;;;5.85;1.45;;;24.30;94.00;;;;;;5111208;28;20520;-68
2022/06/08 11:56:14;;;;;;;5.15;1.42;;;24.40;93.00;;;;;;5111137;28;20024;-67
2022/06/08 11:58:47;;;;;;;1.25;1.00;;;24.40;93.10;;;;;;5110924;28;20024;-67
2022/06/08 12:01:18;;;;;;;;;;;24.30;93.30;;;;;;5111474;28;20027;-67
2022/06/08 12:03:51;;;;;;;4.13;1.00;;;24.40;93.30;;;;;;5111025;28;19943;-67
2022/06/08 12:06:22;;;;;;;4.00;1.50;;;23.60;92.50;;;;;;5109587;28;20051;-67
2022/06/08 12:08:57;;;;;;;6.85;1.30;;;23.60;94.50;;;;;;5109401;28;20592;-68
2022/06/08 12:11:25;;;;;;;2.97;1.33;;;23.30;96.40;;;;;;5109510;28;20099;-67
2022/06/08 12:13:57;;;;;;;3.72;1.77;;;23.30;95.50;;;;;;5110723;28;20107;-67
2022/06/08 12:16:31;;;;;;;5.18;2.47;;;23.10;97.40;;;;;;5110486;28;20016;-67
2022/06/08 12:19:11;;;;;;;6.53;1.50;;;23.10;96.10;;;;;;5110653;28;20032;-68
2022/06/08 12:21:39;;;;;;;2.10;1.23;;;23.10;94.80;;;;;;5110506;28;20441;-67
2022/06/08 12:24:17;;;;;;;2.95;1.10;;;22.90;96.00;;;;;;5110620;28;20032;-67
2022/06/08 12:29:38;;;;;;;5.45;1.52;;;22.90;95.70;;;;;;5070464;28;20433;-68
2022/06/08 12:35:06;;;;;;;8.15;1.80;;;22.70;98.60;;;;;;5111042;27;20420;-68
2022/06/08 12:37:54;;;;;;;4.78;1.52;;;22.20;98.60;;;;;;5109915;28;20378;-67
2022/06/08 12:40:24;;;;;;;4.93;1.23;;;21.90;98.80;;;;;;5109909;28;20474;-68
2022/06/08 12:43:12;;;;;;;7.30;1.50;;;21.80;99.70;;;;;;5109598;28;20028;-67
2022/06/08 12:45:44;;;;;;;3.95;1.65;;;21.70;99.90;;;;;;5110733;28;20019;-67
2022/06/08 12:51:35;;;;;;;4.53;1.27;;;21.20;99.90;;;;;;5110915;27;20384;-67
2022/06/08 12:54:05;;;;;;;4.07;1.08;;;21.10;99.40;;;;;;5092740;28;20024;-67
2022/06/08 12:56:31;;;;;;;2.08;1.20;;;21.10;99.90;;;;;;5110962;28;20030;-67
2022/06/08 12:58:57;;;;;;;6.13;1.42;;;21.10;98.10;;;;;;5109717;28;20045;-67
2022/06/08 13:01:27;;;;;;;3.97;1.60;;;21.10;98.00;;;;;;5109587;28;20115;-68
2022/06/08 13:03:54;;;;;;;5.63;1.60;;;21.20;99.60;;;;;;5110880;28;20024;-67
2022/06/08 13:06:19;;;;;;;3.50;1.23;;;21.00;99.90;;;;;;5111056;28;20026;-67
2022/06/08 13:08:48;;;;;;;6.32;1.80;;;20.80;99.90;;;;;;5111128;28;20028;-68
2022/06/08 13:11:18;;;;;;;3.42;1.40;;;21.00;99.90;;;;;;5109854;28;20162;-68
2022/06/08 13:13:44;;;;;;;4.03;1.63;;;20.70;99.90;;;;;;5110911;28;20052;-67
2022/06/08 13:16:15;;;;;;;5.70;1.95;;;20.60;99.90;;;;;;5110650;28;20020;-68
2022/06/08 13:18:42;;;;;;;6.30;2.13;;;19.80;99.90;;;;;;5109270;28;20470;-66
2022/06/08 13:21:11;;;;;;;9.38;2.00;;;19.40;99.90;;;;;;5110479;28;20035;-68
2022/06/08 13:23:37;;;;;;;3.75;2.00;;;19.10;99.90;;;;;;5110302;28;20080;-68
2022/06/08 13:26:06;;;;;;;7.18;2.10;;;19.00;99.90;;;;;;5109156;28;20103;-68
2022/06/08 13:28:33;;;;;;;7.82;2.97;;;18.60;99.90;;;;;;5110330;28;20020;-68
2022/06/08 13:31:00;;;;;;;10.23;2.85;;;18.50;99.90;;;;;;5108782;28;20024;-67
2022/06/08 13:34:02;;;;;;;5.90;2.40;;;18.40;99.90;;;;;;5110297;28;20016;-67
2022/06/08 13:36:26;;;;;;;6.57;2.65;;;18.60;99.90;;;;;;5110053;28;20030;-67
2022/06/08 13:39:10;;;;;;;5.50;2.10;;;18.60;99.90;;;;;;5110457;28;20028;-62
2022/06/08 13:41:42;;;;;;;3.92;1.50;;;18.50;99.90;;;;;;5110387;28;20081;-67
2022/06/08 13:44:19;;;;;;;4.22;1.95;;;18.50;99.90;;;;;;5110354;28;20023;-68
2022/06/08 13:46:46;;;;;;;8.05;2.03;;;18.40;99.90;;;;;;5092919;28;20043;-67
2022/06/08 13:49:15;;;;;;;4.13;1.92;;;18.40;99.90;;;;;;5109926;28;20043;-68
2022/06/08 13:51:43;;;;;;;5.05;1.85;;;18.40;99.90;;;;;;5109899;28;20031;-67
2022/06/08 13:54:21;;;;;;;5.97;2.13;;;18.30;99.90;;;;;;5109959;28;20020;-67
2022/06/08 13:56:47;;;;;;;5.28;1.63;;;18.00;99.90;;;;;;5110089;28;20024;-68